createdAt,value
2022-09-17T00:01:11.000Z,0
2022-09-17T00:02:28.000Z,0
2022-09-17T00:03:44.000Z,0
2022-09-17T00:05:00.000Z,0
2022-09-17T00:06:17.000Z,0
2022-09-17T00:07:33.000Z,0
2022-09-17T00:08:49.000Z,0
2022-09-17T00:10:05.000Z,0
2022-09-17T00:11:22.000Z,0
2022-09-17T00:12:37.000Z,0
2022-09-17T00:15:10.000Z,0
2022-09-17T00:16:26.000Z,0
2022-09-17T00:18:58.000Z,0
2022-09-17T00:20:15.000Z,0
2022-09-17T00:21:31.000Z,0
2022-09-17T00:22:47.000Z,0
2022-09-17T00:24:04.000Z,0
2022-09-17T00:25:20.000Z,0
2022-09-17T00:26:36.000Z,0
2022-09-17T00:27:52.000Z,0
2022-09-17T00:29:08.000Z,0
2022-09-17T00:30:24.000Z,0
2022-09-17T00:31:40.000Z,0
2022-09-17T00:32:57.000Z,0
2022-09-17T00:34:13.000Z,0
2022-09-17T00:35:29.000Z,0
2022-09-17T00:36:45.000Z,0
2022-09-17T00:38:02.000Z,0
2022-09-17T00:39:18.000Z,0
2022-09-17T00:40:34.000Z,0
2022-09-17T00:41:51.000Z,0
2022-09-17T00:43:07.000Z,0
2022-09-17T00:44:23.000Z,0
2022-09-17T00:45:38.000Z,0
2022-09-17T00:46:55.000Z,0
2022-09-17T00:48:11.000Z,0
2022-09-17T00:49:27.000Z,0
2022-09-17T00:50:44.000Z,0
2022-09-17T00:52:00.000Z,0
2022-09-17T00:53:16.000Z,0
2022-09-17T00:54:32.000Z,0
2022-09-17T00:55:49.000Z,0
2022-09-17T00:57:05.000Z,0
2022-09-17T00:58:21.000Z,0
2022-09-17T00:59:38.000Z,0
2022-09-17T01:00:54.000Z,0
2022-09-17T01:02:09.000Z,0
2022-09-17T01:03:26.000Z,0
2022-09-17T01:05:58.000Z,0
2022-09-17T01:07:14.000Z,0
2022-09-17T01:08:31.000Z,0
2022-09-17T01:09:47.000Z,0
2022-09-17T01:11:03.000Z,0
2022-09-17T01:12:20.000Z,0
2022-09-17T01:14:52.000Z,0
2022-09-17T01:16:08.000Z,0
2022-09-17T01:17:25.000Z,0
2022-09-17T01:18:40.000Z,0
2022-09-17T01:19:56.000Z,0
2022-09-17T01:21:13.000Z,0
2022-09-17T01:22:29.000Z,0
2022-09-17T01:23:45.000Z,0
2022-09-17T01:25:01.000Z,0
2022-09-17T01:26:18.000Z,0
2022-09-17T01:27:34.000Z,0
2022-09-17T01:28:50.000Z,0
2022-09-17T01:30:07.000Z,0
2022-09-17T01:31:23.000Z,0
2022-09-17T01:32:39.000Z,0
2022-09-17T01:33:55.000Z,0
2022-09-17T01:35:11.000Z,0
2022-09-17T01:36:27.000Z,0
2022-09-17T01:39:00.000Z,0
2022-09-17T01:40:16.000Z,0
2022-09-17T01:41:32.000Z,0
2022-09-17T01:42:48.000Z,0
2022-09-17T01:44:05.000Z,0
2022-09-17T01:45:21.000Z,0
2022-09-17T01:46:37.000Z,0
2022-09-17T01:47:54.000Z,0
2022-09-17T01:49:10.000Z,0
2022-09-17T01:50:26.000Z,0
2022-09-17T01:51:41.000Z,0
2022-09-17T01:52:58.000Z,0
2022-09-17T01:54:14.000Z,0
2022-09-17T01:56:47.000Z,0
2022-09-17T01:58:03.000Z,0
2022-09-17T01:59:19.000Z,0
2022-09-17T02:00:35.000Z,0
2022-09-17T02:01:52.000Z,0
2022-09-17T02:03:08.000Z,0
2022-09-17T02:04:24.000Z,0
2022-09-17T02:05:41.000Z,0
2022-09-17T02:06:57.000Z,0
2022-09-17T02:08:12.000Z,0
2022-09-17T02:09:29.000Z,0
2022-09-17T02:10:45.000Z,0
2022-09-17T02:12:01.000Z,0
2022-09-17T02:13:17.000Z,0
2022-09-17T02:14:34.000Z,0
2022-09-17T02:15:50.000Z,0
2022-09-17T02:17:06.000Z,0
2022-09-17T02:18:23.000Z,0
2022-09-17T02:19:39.000Z,0
2022-09-17T02:20:55.000Z,0
2022-09-17T02:23:28.000Z,0
2022-09-17T02:24:43.000Z,0
2022-09-17T02:25:59.000Z,0
2022-09-17T02:27:16.000Z,0
2022-09-17T02:28:32.000Z,0
2022-09-17T02:29:48.000Z,0
2022-09-17T02:31:04.000Z,0
2022-09-17T02:32:21.000Z,0
2022-09-17T02:34:53.000Z,0
2022-09-17T02:36:10.000Z,0
2022-09-17T02:37:26.000Z,0
2022-09-17T02:38:42.000Z,0
2022-09-17T02:39:58.000Z,0
2022-09-17T02:41:14.000Z,0
2022-09-17T02:42:30.000Z,0
2022-09-17T02:45:03.000Z,0
2022-09-17T02:46:18.000Z,0
2022-09-17T02:47:33.000Z,0
2022-09-17T02:48:50.000Z,0
2022-09-17T02:50:06.000Z,0
2022-09-17T02:51:22.000Z,0
2022-09-17T02:52:38.000Z,0
2022-09-17T02:53:55.000Z,0
2022-09-17T02:55:11.000Z,0
2022-09-17T02:56:27.000Z,0
2022-09-17T02:57:44.000Z,0
2022-09-17T02:59:00.000Z,0
2022-09-17T03:00:15.000Z,0
2022-09-17T03:01:30.000Z,0
2022-09-17T03:02:47.000Z,0
2022-09-17T03:04:03.000Z,0
2022-09-17T03:05:19.000Z,0
2022-09-17T03:06:36.000Z,0
2022-09-17T03:07:52.000Z,0
2022-09-17T03:09:08.000Z,0
2022-09-17T03:10:24.000Z,0
2022-09-17T03:12:57.000Z,0
2022-09-17T03:14:13.000Z,0
2022-09-17T03:15:30.000Z,0
2022-09-17T03:16:46.000Z,0
2022-09-17T03:18:01.000Z,0
2022-09-17T03:19:17.000Z,0
2022-09-17T03:20:34.000Z,0
2022-09-17T03:21:50.000Z,0
2022-09-17T03:23:06.000Z,0
2022-09-17T03:24:23.000Z,0
2022-09-17T03:25:39.000Z,0
2022-09-17T03:26:55.000Z,0
2022-09-17T03:29:28.000Z,0
2022-09-17T03:30:44.000Z,0
2022-09-17T03:32:00.000Z,0
2022-09-17T03:33:17.000Z,0
2022-09-17T03:34:32.000Z,0
2022-09-17T03:35:48.000Z,0
2022-09-17T03:37:04.000Z,0
2022-09-17T03:38:21.000Z,0
2022-09-17T03:39:37.000Z,0
2022-09-17T03:40:53.000Z,0
2022-09-17T03:42:10.000Z,0
2022-09-17T03:43:26.000Z,0
2022-09-17T03:44:42.000Z,0
2022-09-17T03:45:59.000Z,0
2022-09-17T03:47:15.000Z,0
2022-09-17T03:48:31.000Z,0
2022-09-17T03:49:47.000Z,0
2022-09-17T03:51:03.000Z,0
2022-09-17T03:52:19.000Z,0
2022-09-17T03:53:35.000Z,0
2022-09-17T03:54:52.000Z,0
2022-09-17T03:56:08.000Z,0
2022-09-17T03:57:24.000Z,0
2022-09-17T03:58:40.000Z,0
2022-09-17T04:01:13.000Z,0
2022-09-17T04:03:46.000Z,0
2022-09-17T04:05:02.000Z,0
2022-09-17T04:06:18.000Z,0
2022-09-17T04:07:34.000Z,0
2022-09-17T04:08:50.000Z,0
2022-09-17T04:10:06.000Z,0
2022-09-17T04:11:22.000Z,0
2022-09-17T04:12:39.000Z,0
2022-09-17T04:13:55.000Z,0
2022-09-17T04:15:11.000Z,0
2022-09-17T04:16:27.000Z,0
2022-09-17T04:17:44.000Z,0
2022-09-17T04:19:00.000Z,0
2022-09-17T04:20:16.000Z,0
2022-09-17T04:21:33.000Z,0
2022-09-17T04:22:49.000Z,0
2022-09-17T04:24:05.000Z,0
2022-09-17T04:25:20.000Z,0
2022-09-17T04:26:37.000Z,0
2022-09-17T04:29:09.000Z,0
2022-09-17T04:30:26.000Z,0
2022-09-17T04:32:58.000Z,0
2022-09-17T04:34:14.000Z,0
2022-09-17T04:35:31.000Z,1
2022-09-17T04:36:47.000Z,1
2022-09-17T04:39:19.000Z,2
2022-09-17T04:40:35.000Z,1
2022-09-17T04:41:50.000Z,0
2022-09-17T04:43:06.000Z,0
2022-09-17T04:44:23.000Z,1
2022-09-17T04:45:39.000Z,1
2022-09-17T04:46:55.000Z,7
2022-09-17T04:48:11.000Z,4
2022-09-17T04:49:27.000Z,5
2022-09-17T04:50:44.000Z,5
2022-09-17T04:52:00.000Z,6
2022-09-17T04:54:32.000Z,7
2022-09-17T04:55:49.000Z,9
2022-09-17T04:57:05.000Z,11
2022-09-17T04:58:20.000Z,14
2022-09-17T04:59:36.000Z,16
2022-09-17T05:00:53.000Z,22
2022-09-17T05:02:09.000Z,27
2022-09-17T05:03:25.000Z,33
2022-09-17T05:04:41.000Z,36
2022-09-17T05:05:58.000Z,50
2022-09-17T05:07:14.000Z,60
2022-09-17T05:09:45.000Z,85
2022-09-17T05:11:00.000Z,99
2022-09-17T05:12:17.000Z,105
2022-09-17T05:13:33.000Z,111
2022-09-17T05:14:49.000Z,117
2022-09-17T05:16:05.000Z,129
2022-09-17T05:17:22.000Z,145
2022-09-17T05:18:38.000Z,160
2022-09-17T05:19:54.000Z,171
2022-09-17T05:21:09.000Z,201
2022-09-17T05:22:26.000Z,224
2022-09-17T05:23:41.000Z,250
2022-09-17T05:24:57.000Z,272
2022-09-17T05:26:13.000Z,296
2022-09-17T05:27:30.000Z,319
2022-09-17T05:28:46.000Z,344
2022-09-17T05:30:02.000Z,367
2022-09-17T05:32:34.000Z,400
2022-09-17T05:33:51.000Z,408
2022-09-17T05:35:07.000Z,438
2022-09-17T05:36:23.000Z,479
2022-09-17T05:37:39.000Z,522
2022-09-17T05:38:56.000Z,557
2022-09-17T05:40:11.000Z,578
2022-09-17T05:41:27.000Z,598
2022-09-17T05:42:43.000Z,612
2022-09-17T05:44:00.000Z,632
2022-09-17T05:45:16.000Z,668
2022-09-17T05:46:32.000Z,724
2022-09-17T05:47:48.000Z,792
2022-09-17T05:49:05.000Z,820
2022-09-17T05:50:21.000Z,783
2022-09-17T05:51:37.000Z,810
2022-09-17T05:52:53.000Z,824
2022-09-17T05:54:09.000Z,894
2022-09-17T05:55:26.000Z,1005
2022-09-17T05:56:41.000Z,867
2022-09-17T05:57:57.000Z,998
2022-09-17T05:59:13.000Z,1048
2022-09-17T06:00:30.000Z,1088
2022-09-17T06:01:46.000Z,997
2022-09-17T06:03:02.000Z,996
2022-09-17T06:04:18.000Z,968
2022-09-17T06:05:35.000Z,1038
2022-09-17T06:06:51.000Z,1144
2022-09-17T06:08:07.000Z,1159
2022-09-17T06:10:40.000Z,477
2022-09-17T06:11:56.000Z,1438
2022-09-17T06:13:11.000Z,2267
2022-09-17T06:14:27.000Z,1521
2022-09-17T06:15:43.000Z,1176
2022-09-17T06:17:00.000Z,1106
2022-09-17T06:18:16.000Z,1100
2022-09-17T06:19:32.000Z,1081
2022-09-17T06:20:48.000Z,1085
2022-09-17T06:22:05.000Z,1121
2022-09-17T06:23:21.000Z,1182
2022-09-17T06:24:37.000Z,1099
2022-09-17T06:25:53.000Z,1045
2022-09-17T06:27:10.000Z,1352
2022-09-17T06:28:26.000Z,1136
2022-09-17T06:29:41.000Z,1566
2022-09-17T06:30:57.000Z,856
2022-09-17T06:32:14.000Z,1735
2022-09-17T06:33:30.000Z,2651
2022-09-17T06:34:46.000Z,1811
2022-09-17T06:36:02.000Z,1971
2022-09-17T06:37:18.000Z,1918
2022-09-17T06:38:35.000Z,1797
2022-09-17T06:39:51.000Z,1997
2022-09-17T06:41:07.000Z,1991
2022-09-17T06:42:23.000Z,2054
2022-09-17T06:43:40.000Z,1190
2022-09-17T06:44:56.000Z,1167
2022-09-17T06:46:12.000Z,4182
2022-09-17T06:48:44.000Z,7515
2022-09-17T06:50:00.000Z,1618
2022-09-17T06:51:16.000Z,2209
2022-09-17T06:52:32.000Z,9646
2022-09-17T06:55:05.000Z,8722
2022-09-17T06:56:21.000Z,3488
2022-09-17T06:57:37.000Z,2028
2022-09-17T06:58:53.000Z,3072
2022-09-17T07:01:26.000Z,4987
2022-09-17T07:02:41.000Z,3185
2022-09-17T07:03:56.000Z,3092
2022-09-17T07:05:13.000Z,1167
2022-09-17T07:06:29.000Z,1758
2022-09-17T07:07:45.000Z,3189
2022-09-17T07:09:01.000Z,12842
2022-09-17T07:10:18.000Z,3056
2022-09-17T07:11:34.000Z,2376
2022-09-17T07:12:50.000Z,2254
2022-09-17T07:14:06.000Z,2469
2022-09-17T07:15:23.000Z,2754
2022-09-17T07:16:38.000Z,2435
2022-09-17T07:17:53.000Z,3338
2022-09-17T07:19:09.000Z,1976
2022-09-17T07:20:25.000Z,5272
2022-09-17T07:21:42.000Z,3258
2022-09-17T07:22:58.000Z,3587
2022-09-17T07:24:14.000Z,2683
2022-09-17T07:25:30.000Z,2207
2022-09-17T07:26:47.000Z,3687
2022-09-17T07:28:03.000Z,4022
2022-09-17T07:29:19.000Z,4326
2022-09-17T07:30:35.000Z,4824
2022-09-17T07:31:52.000Z,3482
2022-09-17T07:33:08.000Z,3632
2022-09-17T07:34:23.000Z,4266
2022-09-17T07:35:39.000Z,3821
2022-09-17T07:36:56.000Z,3619
2022-09-17T07:39:28.000Z,2450
2022-09-17T07:40:44.000Z,7671
2022-09-17T07:42:00.000Z,3611
2022-09-17T07:43:17.000Z,3571
2022-09-17T07:44:33.000Z,3442
2022-09-17T07:45:49.000Z,3367
2022-09-17T07:47:05.000Z,3359
2022-09-17T07:48:22.000Z,3183
2022-09-17T07:49:38.000Z,3815
2022-09-17T07:50:53.000Z,3486
2022-09-17T07:52:09.000Z,2385
2022-09-17T07:53:26.000Z,4782
2022-09-17T07:54:42.000Z,4589
2022-09-17T07:55:58.000Z,2316
2022-09-17T07:57:14.000Z,5170
2022-09-17T07:58:31.000Z,5141
2022-09-17T07:59:47.000Z,4577
2022-09-17T08:01:03.000Z,3409
2022-09-17T08:02:19.000Z,4877
2022-09-17T08:03:35.000Z,4236
2022-09-17T08:04:52.000Z,4174
2022-09-17T08:06:08.000Z,3968
2022-09-17T08:07:24.000Z,3855
2022-09-17T08:08:39.000Z,3756
2022-09-17T08:09:56.000Z,3795
2022-09-17T08:11:12.000Z,2010
2022-09-17T08:12:28.000Z,7755
2022-09-17T08:13:44.000Z,5133
2022-09-17T08:15:01.000Z,5621
2022-09-17T08:17:33.000Z,4548
2022-09-17T08:18:49.000Z,4468
2022-09-17T08:20:05.000Z,3839
2022-09-17T08:21:22.000Z,1925
2022-09-17T08:22:38.000Z,3971
2022-09-17T08:23:54.000Z,7948
2022-09-17T08:25:09.000Z,12515
2022-09-17T08:26:26.000Z,4785
2022-09-17T08:27:42.000Z,79405
2022-09-17T08:28:58.000Z,79412
2022-09-17T08:30:14.000Z,81518
2022-09-17T08:31:31.000Z,79370
2022-09-17T08:32:47.000Z,80843
2022-09-17T08:35:19.000Z,79178
2022-09-17T08:36:36.000Z,79990
2022-09-17T08:37:52.000Z,80611
2022-09-17T08:39:08.000Z,79752
2022-09-17T08:40:24.000Z,80744
2022-09-17T08:41:39.000Z,83425
2022-09-17T08:42:56.000Z,78125
2022-09-17T08:44:12.000Z,78343
2022-09-17T08:45:28.000Z,79214
2022-09-17T08:46:44.000Z,80739
2022-09-17T08:48:01.000Z,77450
2022-09-17T08:49:17.000Z,79200
2022-09-17T08:50:33.000Z,78239
2022-09-17T08:51:49.000Z,76886
2022-09-17T08:53:06.000Z,79930
2022-09-17T08:54:22.000Z,79767
2022-09-17T08:55:38.000Z,80299
2022-09-17T08:56:54.000Z,82888
2022-09-17T08:58:10.000Z,81274
2022-09-17T08:59:26.000Z,82874
2022-09-17T09:00:42.000Z,80053
2022-09-17T09:01:58.000Z,82418
2022-09-17T09:03:14.000Z,82272
2022-09-17T09:04:31.000Z,78600
2022-09-17T09:05:47.000Z,57845
2022-09-17T09:08:19.000Z,5248
2022-09-17T09:09:36.000Z,75180
2022-09-17T09:10:52.000Z,81504
2022-09-17T09:12:08.000Z,80161
2022-09-17T09:13:24.000Z,58221
2022-09-17T09:14:40.000Z,7363
2022-09-17T09:15:56.000Z,2352
2022-09-17T09:17:12.000Z,5465
2022-09-17T09:18:28.000Z,82216
2022-09-17T09:19:45.000Z,58752
2022-09-17T09:21:01.000Z,9018
2022-09-17T09:22:17.000Z,3682
2022-09-17T09:23:33.000Z,8389
2022-09-17T09:24:49.000Z,1650
2022-09-17T09:26:06.000Z,9688
2022-09-17T09:27:22.000Z,3286
2022-09-17T09:28:38.000Z,6497
2022-09-17T09:29:54.000Z,3039
2022-09-17T09:31:11.000Z,11265
2022-09-17T09:32:26.000Z,3081
2022-09-17T09:33:42.000Z,3456
2022-09-17T09:34:58.000Z,1181
2022-09-17T09:36:15.000Z,8060
2022-09-17T09:37:31.000Z,23122
2022-09-17T09:38:47.000Z,20701
2022-09-17T09:40:03.000Z,75154
2022-09-17T09:41:20.000Z,62777
2022-09-17T09:42:36.000Z,18305
2022-09-17T09:43:52.000Z,7064
2022-09-17T09:46:24.000Z,79981
2022-09-17T09:47:41.000Z,61060
2022-09-17T09:48:56.000Z,13277
2022-09-17T09:50:12.000Z,81988
2022-09-17T09:51:28.000Z,81002
2022-09-17T09:52:45.000Z,80366
2022-09-17T09:54:01.000Z,78818
2022-09-17T09:56:33.000Z,61183
2022-09-17T09:59:06.000Z,4353
2022-09-17T10:01:37.000Z,1456
2022-09-17T10:02:53.000Z,1189
2022-09-17T10:04:08.000Z,18911
2022-09-17T10:05:24.000Z,8200
2022-09-17T10:06:40.000Z,77958
2022-09-17T10:09:13.000Z,81286
2022-09-17T10:10:29.000Z,73470
2022-09-17T10:11:45.000Z,78444
2022-09-17T10:13:01.000Z,78513
2022-09-17T10:14:18.000Z,60982
2022-09-17T10:15:34.000Z,11754
2022-09-17T10:16:50.000Z,79515
2022-09-17T10:18:06.000Z,60498
2022-09-17T10:19:23.000Z,10337
2022-09-17T10:20:38.000Z,6288
2022-09-17T10:21:54.000Z,4262
2022-09-17T10:24:27.000Z,1561
2022-09-17T10:25:42.000Z,919
2022-09-17T10:26:58.000Z,561
2022-09-17T10:28:13.000Z,501
2022-09-17T10:29:30.000Z,510
2022-09-17T10:30:46.000Z,529
2022-09-17T10:32:02.000Z,527
2022-09-17T10:33:18.000Z,393
2022-09-17T10:34:34.000Z,78571
2022-09-17T10:35:51.000Z,79433
2022-09-17T10:37:07.000Z,81782
2022-09-17T10:39:39.000Z,63461
2022-09-17T10:40:56.000Z,8017
2022-09-17T10:42:12.000Z,76584
2022-09-17T10:43:28.000Z,78215
2022-09-17T10:44:43.000Z,74753
2022-09-17T10:46:00.000Z,80207
2022-09-17T10:47:16.000Z,81323
2022-09-17T10:49:48.000Z,75474
2022-09-17T10:52:21.000Z,74987
2022-09-17T10:53:37.000Z,69558
2022-09-17T10:54:53.000Z,19390
2022-09-17T10:56:09.000Z,78235
2022-09-17T10:57:26.000Z,74683
2022-09-17T10:58:42.000Z,76603
2022-09-17T10:59:58.000Z,71127
2022-09-17T11:02:30.000Z,18682
2022-09-17T11:03:46.000Z,5963
2022-09-17T11:05:02.000Z,31967
2022-09-17T11:06:18.000Z,36928
2022-09-17T11:07:35.000Z,41056
2022-09-17T11:08:51.000Z,36373
2022-09-17T11:10:07.000Z,30521
2022-09-17T11:11:23.000Z,20644
2022-09-17T11:12:40.000Z,3240
2022-09-17T11:15:12.000Z,17021
2022-09-17T11:16:28.000Z,16479
2022-09-17T11:17:43.000Z,11329
2022-09-17T11:19:00.000Z,8110
2022-09-17T11:20:16.000Z,7856
2022-09-17T11:21:32.000Z,7754
2022-09-17T11:22:48.000Z,7999
2022-09-17T11:24:05.000Z,7691
2022-09-17T11:25:21.000Z,7476
2022-09-17T11:27:53.000Z,5996
2022-09-17T11:29:10.000Z,5483
2022-09-17T11:30:26.000Z,5287
2022-09-17T11:31:42.000Z,5331
2022-09-17T11:32:58.000Z,5151
2022-09-17T11:34:14.000Z,5991
2022-09-17T11:35:30.000Z,7139
2022-09-17T11:36:46.000Z,7621
2022-09-17T11:38:02.000Z,8346
2022-09-17T11:40:35.000Z,7491
2022-09-17T11:41:51.000Z,7431
2022-09-17T11:43:07.000Z,7985
2022-09-17T11:44:23.000Z,6229
2022-09-17T11:45:40.000Z,3311
2022-09-17T11:46:56.000Z,5680
2022-09-17T11:48:12.000Z,6680
2022-09-17T11:49:28.000Z,2599
2022-09-17T11:50:44.000Z,6282
2022-09-17T11:52:00.000Z,5426
2022-09-17T11:53:16.000Z,5010
2022-09-17T11:54:31.000Z,5011
2022-09-17T11:55:47.000Z,4872
2022-09-17T11:57:03.000Z,4715
2022-09-17T11:58:19.000Z,4646
2022-09-17T11:59:35.000Z,4619
2022-09-17T12:00:51.000Z,4609
2022-09-17T12:02:08.000Z,4614
2022-09-17T12:03:24.000Z,4413
2022-09-17T12:05:56.000Z,4940
2022-09-17T12:07:13.000Z,4999
2022-09-17T12:08:29.000Z,6445
2022-09-17T12:09:45.000Z,4288
2022-09-17T12:11:01.000Z,1592
2022-09-17T12:12:17.000Z,5946
2022-09-17T12:13:33.000Z,8775
2022-09-17T12:14:49.000Z,9225
2022-09-17T12:16:05.000Z,7164
2022-09-17T12:18:38.000Z,1525
2022-09-17T12:19:53.000Z,8286
2022-09-17T12:21:08.000Z,4389
2022-09-17T12:22:25.000Z,9423
2022-09-17T12:23:41.000Z,4915
2022-09-17T12:24:57.000Z,4379
2022-09-17T12:26:13.000Z,2147
2022-09-17T12:27:29.000Z,10569
2022-09-17T12:28:46.000Z,8414
2022-09-17T12:30:02.000Z,5856
2022-09-17T12:31:18.000Z,4773
2022-09-17T12:32:34.000Z,3825
2022-09-17T12:33:50.000Z,3119
2022-09-17T12:35:05.000Z,2677
2022-09-17T12:36:21.000Z,1993
2022-09-17T12:37:37.000Z,1461
2022-09-17T12:38:54.000Z,1051
2022-09-17T12:40:10.000Z,642
2022-09-17T12:41:26.000Z,576
2022-09-17T12:43:59.000Z,693
2022-09-17T12:45:15.000Z,605
2022-09-17T12:46:31.000Z,579
2022-09-17T12:47:47.000Z,558
2022-09-17T12:49:03.000Z,528
2022-09-17T12:50:20.000Z,441
2022-09-17T12:51:35.000Z,362
2022-09-17T12:52:51.000Z,529
2022-09-17T12:54:07.000Z,1014
2022-09-17T12:55:24.000Z,3196
2022-09-17T12:56:40.000Z,7223
2022-09-17T12:57:56.000Z,7898
2022-09-17T12:59:12.000Z,7009
2022-09-17T13:00:29.000Z,6657
2022-09-17T13:01:44.000Z,6306
2022-09-17T13:02:59.000Z,5973
2022-09-17T13:04:15.000Z,5542
2022-09-17T13:05:32.000Z,5525
2022-09-17T13:06:48.000Z,4962
2022-09-17T13:09:20.000Z,4153
2022-09-17T13:10:36.000Z,7877
2022-09-17T13:11:53.000Z,7921
2022-09-17T13:13:09.000Z,6304
2022-09-17T13:14:25.000Z,2543
2022-09-17T13:15:41.000Z,6191
2022-09-17T13:16:58.000Z,8399
2022-09-17T13:18:14.000Z,6818
2022-09-17T13:19:29.000Z,5240
2022-09-17T13:22:02.000Z,6239
2022-09-17T13:23:17.000Z,6853
2022-09-17T13:24:33.000Z,6784
2022-09-17T13:25:49.000Z,5698
2022-09-17T13:27:06.000Z,6133
2022-09-17T13:28:22.000Z,6736
2022-09-17T13:29:38.000Z,6121
2022-09-17T13:30:54.000Z,5951
2022-09-17T13:32:11.000Z,3772
2022-09-17T13:33:27.000Z,2564
2022-09-17T13:34:43.000Z,1641
2022-09-17T13:35:59.000Z,998
2022-09-17T13:37:15.000Z,755
2022-09-17T13:38:30.000Z,587
2022-09-17T13:41:02.000Z,788
2022-09-17T13:42:18.000Z,828
2022-09-17T13:43:35.000Z,738
2022-09-17T13:44:51.000Z,1211
2022-09-17T13:47:23.000Z,1006
2022-09-17T13:48:40.000Z,799
2022-09-17T13:49:56.000Z,626
2022-09-17T13:51:12.000Z,491
2022-09-17T13:52:28.000Z,504
2022-09-17T13:53:44.000Z,2230
2022-09-17T13:54:59.000Z,3505
2022-09-17T13:56:15.000Z,3984
2022-09-17T13:57:31.000Z,4187
2022-09-17T14:00:04.000Z,3726
2022-09-17T14:01:20.000Z,3629
2022-09-17T14:02:36.000Z,3356
2022-09-17T14:03:53.000Z,3599
2022-09-17T14:05:09.000Z,3800
2022-09-17T14:06:25.000Z,3356
2022-09-17T14:07:41.000Z,2872
2022-09-17T14:08:57.000Z,2694
2022-09-17T14:10:14.000Z,2629
2022-09-17T14:11:29.000Z,3219
2022-09-17T14:12:45.000Z,2850
2022-09-17T14:14:01.000Z,2614
2022-09-17T14:15:18.000Z,2468
2022-09-17T14:16:34.000Z,2320
2022-09-17T14:17:50.000Z,2253
2022-09-17T14:19:06.000Z,2059
2022-09-17T14:20:23.000Z,1875
2022-09-17T14:21:38.000Z,1827
2022-09-17T14:22:53.000Z,1736
2022-09-17T14:24:09.000Z,1110
2022-09-17T14:25:26.000Z,1555
2022-09-17T14:26:42.000Z,2310
2022-09-17T14:29:14.000Z,2165
2022-09-17T14:30:30.000Z,2118
2022-09-17T14:31:47.000Z,2082
2022-09-17T14:33:03.000Z,2087
2022-09-17T14:34:19.000Z,1940
2022-09-17T14:35:35.000Z,2350
2022-09-17T14:38:08.000Z,2630
2022-09-17T14:39:23.000Z,2761
2022-09-17T14:40:38.000Z,2561
2022-09-17T14:41:55.000Z,2702
2022-09-17T14:43:11.000Z,3025
2022-09-17T14:44:27.000Z,3168
2022-09-17T14:45:43.000Z,3062
2022-09-17T14:47:00.000Z,3596
2022-09-17T14:48:16.000Z,3120
2022-09-17T14:49:32.000Z,2953
2022-09-17T14:50:48.000Z,2641
2022-09-17T14:52:04.000Z,2345
2022-09-17T14:53:20.000Z,2190
2022-09-17T14:54:35.000Z,2077
2022-09-17T14:55:51.000Z,2085
2022-09-17T14:57:07.000Z,1924
2022-09-17T14:58:24.000Z,1762
2022-09-17T14:59:40.000Z,1956
2022-09-17T15:00:56.000Z,1724
2022-09-17T15:03:29.000Z,978
2022-09-17T15:04:45.000Z,590
2022-09-17T15:06:01.000Z,430
2022-09-17T15:07:17.000Z,507
2022-09-17T15:08:34.000Z,621
2022-09-17T15:09:50.000Z,677
2022-09-17T15:11:05.000Z,725
2022-09-17T15:12:21.000Z,803
2022-09-17T15:13:37.000Z,899
2022-09-17T15:16:10.000Z,1252
2022-09-17T15:17:25.000Z,1332
2022-09-17T15:18:41.000Z,1472
2022-09-17T15:19:57.000Z,1562
2022-09-17T15:21:13.000Z,1603
2022-09-17T15:22:29.000Z,1584
2022-09-17T15:23:45.000Z,1522
2022-09-17T15:25:02.000Z,1566
2022-09-17T15:26:18.000Z,1611
2022-09-17T15:27:34.000Z,1519
2022-09-17T15:28:50.000Z,1525
2022-09-17T15:30:07.000Z,1501
2022-09-17T15:31:23.000Z,1466
2022-09-17T15:32:38.000Z,1701
2022-09-17T15:33:53.000Z,1868
2022-09-17T15:35:10.000Z,2017
2022-09-17T15:36:26.000Z,2117
2022-09-17T15:37:42.000Z,2141
2022-09-17T15:38:58.000Z,1944
2022-09-17T15:40:14.000Z,1785
2022-09-17T15:41:31.000Z,1637
2022-09-17T15:42:47.000Z,1531
2022-09-17T15:44:03.000Z,1449
2022-09-17T15:45:19.000Z,1378
2022-09-17T15:46:36.000Z,1326
2022-09-17T15:47:52.000Z,1278
2022-09-17T15:49:08.000Z,1243
2022-09-17T15:50:23.000Z,1211
2022-09-17T15:51:40.000Z,1187
2022-09-17T15:54:12.000Z,1155
2022-09-17T15:55:28.000Z,1146
2022-09-17T15:56:45.000Z,1144
2022-09-17T15:58:01.000Z,1142
2022-09-17T15:59:17.000Z,1118
2022-09-17T16:00:33.000Z,1079
2022-09-17T16:01:49.000Z,1045
2022-09-17T16:03:06.000Z,1035
2022-09-17T16:05:38.000Z,1018
2022-09-17T16:06:53.000Z,986
2022-09-17T16:08:10.000Z,1001
2022-09-17T16:09:26.000Z,1002
2022-09-17T16:10:42.000Z,1135
2022-09-17T16:11:58.000Z,1065
2022-09-17T16:13:15.000Z,947
2022-09-17T16:14:31.000Z,876
2022-09-17T16:15:47.000Z,862
2022-09-17T16:17:03.000Z,888
2022-09-17T16:18:19.000Z,823
2022-09-17T16:19:36.000Z,573
2022-09-17T16:20:52.000Z,842
2022-09-17T16:22:08.000Z,1363
2022-09-17T16:23:23.000Z,1608
2022-09-17T16:24:40.000Z,1409
2022-09-17T16:25:56.000Z,1216
2022-09-17T16:27:12.000Z,1071
2022-09-17T16:28:28.000Z,952
2022-09-17T16:29:45.000Z,864
2022-09-17T16:31:01.000Z,815
2022-09-17T16:32:17.000Z,788
2022-09-17T16:33:33.000Z,826
2022-09-17T16:34:50.000Z,896
2022-09-17T16:36:06.000Z,929
2022-09-17T16:37:22.000Z,954
2022-09-17T16:38:38.000Z,911
2022-09-17T16:39:53.000Z,813
2022-09-17T16:41:10.000Z,709
2022-09-17T16:42:26.000Z,661
2022-09-17T16:43:42.000Z,636
2022-09-17T16:44:58.000Z,656
2022-09-17T16:46:15.000Z,704
2022-09-17T16:47:31.000Z,729
2022-09-17T16:48:47.000Z,710
2022-09-17T16:50:03.000Z,675
2022-09-17T16:51:20.000Z,653
2022-09-17T16:52:36.000Z,645
2022-09-17T16:53:52.000Z,634
2022-09-17T16:55:08.000Z,617
2022-09-17T16:56:24.000Z,585
2022-09-17T16:57:40.000Z,553
2022-09-17T16:58:56.000Z,540
2022-09-17T17:01:28.000Z,520
2022-09-17T17:02:45.000Z,527
2022-09-17T17:04:01.000Z,533
2022-09-17T17:05:17.000Z,520
2022-09-17T17:06:33.000Z,486
2022-09-17T17:07:50.000Z,517
2022-09-17T17:09:06.000Z,481
2022-09-17T17:10:22.000Z,458
2022-09-17T17:11:38.000Z,441
2022-09-17T17:12:54.000Z,428
2022-09-17T17:14:10.000Z,407
2022-09-17T17:15:26.000Z,381
2022-09-17T17:16:42.000Z,365
2022-09-17T17:17:59.000Z,349
2022-09-17T17:19:15.000Z,332
2022-09-17T17:20:31.000Z,314
2022-09-17T17:23:03.000Z,271
2022-09-17T17:24:20.000Z,255
2022-09-17T17:25:36.000Z,236
2022-09-17T17:26:52.000Z,218
2022-09-17T17:28:08.000Z,201
2022-09-17T17:29:24.000Z,184
2022-09-17T17:30:40.000Z,170
2022-09-17T17:31:56.000Z,153
2022-09-17T17:33:12.000Z,139
2022-09-17T17:34:29.000Z,128
2022-09-17T17:35:45.000Z,114
2022-09-17T17:37:01.000Z,103
2022-09-17T17:38:17.000Z,92
2022-09-17T17:39:33.000Z,84
2022-09-17T17:40:50.000Z,73
2022-09-17T17:42:06.000Z,66
2022-09-17T17:43:22.000Z,58
2022-09-17T17:44:38.000Z,51
2022-09-17T17:45:54.000Z,45
2022-09-17T17:47:10.000Z,39
2022-09-17T17:48:26.000Z,32
2022-09-17T17:49:42.000Z,27
2022-09-17T17:50:59.000Z,23
2022-09-17T17:52:15.000Z,20
2022-09-17T17:53:31.000Z,17
2022-09-17T17:54:47.000Z,14
2022-09-17T17:56:04.000Z,11
2022-09-17T17:57:20.000Z,10
2022-09-17T17:58:36.000Z,8
2022-09-17T17:59:52.000Z,4
2022-09-17T18:01:08.000Z,3
2022-09-17T18:02:24.000Z,3
2022-09-17T18:03:40.000Z,2
2022-09-17T18:04:56.000Z,1
2022-09-17T18:06:12.000Z,2
2022-09-17T18:07:29.000Z,1
2022-09-17T18:08:45.000Z,1
2022-09-17T18:10:01.000Z,0
2022-09-17T18:11:17.000Z,0
2022-09-17T18:13:50.000Z,0
2022-09-17T18:15:06.000Z,0
2022-09-17T18:16:23.000Z,0
2022-09-17T18:17:39.000Z,0
2022-09-17T18:18:55.000Z,0
2022-09-17T18:20:10.000Z,0
2022-09-17T18:21:27.000Z,0
2022-09-17T18:22:43.000Z,0
2022-09-17T18:23:59.000Z,0
2022-09-17T18:26:32.000Z,0
2022-09-17T18:27:48.000Z,0
2022-09-17T18:29:04.000Z,0
2022-09-17T18:30:21.000Z,0
2022-09-17T18:31:37.000Z,0
2022-09-17T18:34:10.000Z,0
2022-09-17T18:35:26.000Z,0
2022-09-17T18:37:58.000Z,0
2022-09-17T18:39:13.000Z,0
2022-09-17T18:40:28.000Z,0
2022-09-17T18:41:44.000Z,0
2022-09-17T18:43:01.000Z,0
2022-09-17T18:44:17.000Z,0
2022-09-17T18:45:33.000Z,0